Mahnomen, MN

1:47 PM CST on December 05, 2016 (GMT -0600)
Gunderson Farm | | Change Station
Active Advisory: Winter Weather Advisory

Elev 1207 ft 47.46 °N, 96.04 °W | Updated 6 seconds ago

Clear
Clear
32.5 °F
Feels Like 26 °F
N
6.5
Wind Variable Wind from NE
Gusts 7.4 mph

Today
High -- | Low -- °F
--% Chance of Precip.
Yesterday
High -- | Low -- °F
Precip. -- in
Pressure 29.60 in
Visibility 10.0 miles
Clouds Clear
Windchill 26 °F
Dew Point 28 °F
Humidity 82%
Rainfall 0.00 in
Snow Depth Not available.
7:55 AM 4:34 PM
Waxing Crescent, 34% visible
METAR KFSE 051934Z AUTO 07009KT 10SM CLR M01/M02 A2960 RMK AO2
Pressure 29.60 in
Visibility 10.0 miles
Clouds Clear
Windchill 26 °F
Dew Point 28 °F
Humidity 82%
Rainfall 0.00 in
Snow Depth Not available.
7:55 AM 4:34 PM
Waxing Crescent, 34% visible
METAR KFSE 051934Z AUTO 07009KT 10SM CLR M01/M02 A2960 RMK AO2

10-Day Weather Forecast

Almanac

Astronomy

Dec. 05, 2016 Rise Set
Actual Time
Civil Twilight
Nautical Twilight
Astronomical Twilight
Moon
Length of Visible Light
Length of Day
Tomorrow will be .
, % of the Moon is Illuminated

Today's Extremes

State Highs State Lows

Community

WunderPhotos

Upload Photos

1,955,852 photos uploaded!

WunderBlog® & News

Nearby

Air Quality

  Air Quality AQ Index Pollutant
Not available.

Snow Depth

Station Depth Elevation

Earthquake Activity

City Distance Mag. Time & Date
Minimum magnitude displayed is 2.5.

Coastal Water Temperatures

Place Temperature

Stations

Nearby Weather Stations

Station Location Temp. Windchill Dew Point Humidity Wind Precip. Elev Updated Type
                   

Watches & Warnings

Winter Weather Advisory
Issued: 3:58 AM CST Dec. 5, 2016 – National Weather Service

... Winter Weather Advisory in effect from 6 PM this evening to
6 PM CST Tuesday...

The National Weather Service in Grand Forks has issued a Winter
Weather Advisory for snow and blowing snow... which is in effect
from 6 PM this evening to 6 PM CST Tuesday.

* Timing... expect a wintry mix to develop around 6 PM and then
diminish around 6 PM Tuesday.

* Precipitation rates... the heaviest snowfall rates will occur
between 6 PM this evening and 3am Tuesday.

* Snow accumulations... total snow accumulations of 3 to 6 inches
are expected.

* Winds / visibilities... look for reduced visibilities at times.

* Impacts... plan on difficult driving conditions.

Precautionary/preparedness actions...

A Winter Weather Advisory means that periods of snow or sleet will
cause travel difficulties. Be prepared for slippery roads and
limited visibilities... and use caution while driving. The latest
Road conditions for the state you are calling from can be obtained
by calling 5 1 1.


Gust